Airfield :
LOGIN :

Register | Disclaimer

   EN    FR    IT 

 










Legend :    VFR   Marginal VFR   IFR   Intensive IFR   Very Intensive IFR
Visi :
Ceiling :
>= 8 km
>= 3000ft
5 to 8 km
1000 to 3000 ft
1500m to 5 km
500 to 1000 ft
800 to 1500m
200 to 500 ft
< 800m
< 200 ft
Symbols :   Thunderstorms  Fog  Heavy snow  Heavy precipitations  Wind > 20 kt
SIGMETs :     Misc.  Thunderstorms  Icing  Turbulence  Mountain Waves  Volcanic Ashes







- Airport Elevation : 78 ft
- IATA code : LED


ULLI - Pulkovo

CURRENT METAR :
  • 181930Z 35003MPS 4700 -SN SCT009 BKN019 M04/M06 Q1020 R88/490536 NOSIG

EXPIRED METARs :
  • 181900Z 36003MPS 5000 -SN SCT010 BKN019 M04/M06 Q1020 R28L/490536 NOSIG
  • 181830Z 36003MPS 330V040 5000 -SN SCT010 BKN019 M04/M06 Q1020 R28L/490536 NOSIG
  • 181800Z 36003MPS 320V020 5000 -SN SCT010 BKN019 M04/M06 Q1020 R28L/490536 NOSIG
  • 181730Z 36003MPS 3500 -SN SCT010 BKN019 M04/M06 Q1020 R88/490536 NOSIG
  • 181700Z 36003MPS 4000 -SN SCT010 BKN019 M04/M06 Q1020 R88/490536 NOSIG
  • 181630Z 35003MPS 3000 -SN SCT010 BKN019 M04/M06 Q1020 R28L/490537 R28R/490536 NOSIG

TAF TAF ULLI
Valid from the 18 at 18:00 until the 19 at 18:00 UTC


181659Z 1818/1918 35003G08MPS 3100 -SN BR BKN010 BKN020
TEMPO 1818/1903 32003MPS 2100 -SHSN BR BKN006 BKN015CB
BECMG 1903/1905 6000 NSW BKN011 BKN020
TEMPO 1903/1918 01005MPS 3100 -SHSN BR BKN015CB
No reported NOTAMs for that airfield.



MET'MAP, your aeronautical weather chart ! - Copyright ORBIFLY December 2007 - Disclaimer

ORBIFLY MET'MAP TEAM :

Programming & Development : Alexandra Zaïnal
Concept & Development : Baudouin d'Aumeries
Co-Development & Prog : Marc-Olivier Méhu
Technical & hardware support : Manuel Goepfert

Contact : metmap@orbifly.com




SOURCES & CREDITS :

   NOAA